Pine Forest, Texas
Current Conditions -  °F | °C
As of 2:35 AM on Saturday 29 Nov 2014 (Local Time) from KBMT Reporting Station
Clear Clear  
Wind Chill: 58°   Ceiling: Unl
Heat Index: 58°   Visibility: 10mi
Dew Point: 57°   Wind: 5mph
Humidity: 96%   Direction: 170°S
Pressure: 30.12"   Gusts: NA
Location:  30.1707°N, 94.0082°W
Report Text: KBMT 290835Z AUTO 17004KT 10SM CLR 15/14 A3012 RMK AO2 T01460140
Loading
Personal Weather Stations






























Interactive Weather Map New forecast layout! Learn more

10-Day Weather Forecast

Advertisements
Track Severe Weather on mobile